createdAt,value
2023-04-24T00:02:32.801Z,96904.47
2023-04-24T00:05:06.528Z,96909.66
2023-04-24T00:07:39.514Z,96922.56
2023-04-24T00:10:13.526Z,96924.53
2023-04-24T00:12:46.900Z,96919.44
2023-04-24T00:15:19.970Z,96922.56
2023-04-24T00:17:54.830Z,96922.50
2023-04-24T00:20:29.287Z,96922.31
2023-04-24T00:23:02.305Z,96926.41
2023-04-24T00:25:35.314Z,96939.03
2023-04-24T00:28:08.391Z,96933.84
2023-04-24T00:30:42.166Z,96931.53
2023-04-24T00:33:16.885Z,96927.81
2023-04-24T00:35:49.854Z,96924.56
2023-04-24T00:38:23.075Z,96927.31
2023-04-24T00:40:56.198Z,96932.59
2023-04-24T00:43:29.242Z,96941.13
2023-04-24T00:46:02.756Z,96935.28
2023-04-24T00:48:37.943Z,96940.66
2023-04-24T00:51:11.138Z,96931.59
2023-04-24T00:53:44.167Z,96927.38
2023-04-24T00:56:17.408Z,96928.56
2023-04-24T00:58:50.469Z,96922.41
2023-04-24T01:01:24.350Z,96928.69
2023-04-24T01:04:00.520Z,96916.81
2023-04-24T01:06:34.278Z,96919.00
2023-04-24T01:09:08.034Z,96916.44
2023-04-24T01:11:43.771Z,96905.44
2023-04-24T01:14:16.949Z,96905.47
2023-04-24T01:16:49.893Z,96907.72
2023-04-24T01:19:24.245Z,96901.22
2023-04-24T01:22:00.976Z,96899.38
2023-04-24T01:24:35.468Z,96891.09
2023-04-24T01:27:09.575Z,96893.44
2023-04-24T01:29:43.009Z,96891.13
2023-04-24T01:32:16.584Z,96892.94
2023-04-24T01:34:50.468Z,96895.50
2023-04-24T01:37:23.522Z,96887.03
2023-04-24T01:39:57.875Z,96888.38
2023-04-24T01:42:31.505Z,96887.25
2023-04-24T01:45:07.172Z,96889.19
2023-04-24T01:47:40.775Z,96875.88
2023-04-24T01:50:14.047Z,96877.63
2023-04-24T01:52:47.063Z,96883.41
2023-04-24T01:55:21.521Z,96883.56
2023-04-24T01:57:57.470Z,96882.34
2023-04-24T02:00:30.643Z,96877.31
2023-04-24T02:03:04.037Z,96883.81
2023-04-24T02:05:37.115Z,96876.81
2023-04-24T02:08:10.050Z,96876.75
2023-04-24T02:10:44.451Z,96883.66
2023-04-24T02:13:17.397Z,96880.13
2023-04-24T02:15:50.400Z,96872.75
2023-04-24T02:18:23.715Z,96878.13
2023-04-24T02:20:56.690Z,96879.94
2023-04-24T02:23:29.681Z,96874.19
2023-04-24T02:26:04.248Z,96874.94
2023-04-24T02:28:37.220Z,96882.28
2023-04-24T02:31:10.179Z,96883.16
2023-04-24T02:33:43.252Z,96884.66
2023-04-24T02:36:16.210Z,96878.88
2023-04-24T02:38:49.161Z,96880.22
2023-04-24T02:41:23.471Z,96881.94
2023-04-24T02:43:56.454Z,96881.16
2023-04-24T02:46:29.778Z,96874.44
2023-04-24T02:49:03.455Z,96876.50
2023-04-24T02:51:39.073Z,96882.91
2023-04-24T02:54:12.088Z,96879.94
2023-04-24T02:56:46.370Z,96874.13
2023-04-24T02:59:19.323Z,96871.06
2023-04-24T03:01:52.312Z,96868.63
2023-04-24T03:04:25.430Z,96866.81
2023-04-24T03:06:58.754Z,96867.53
2023-04-24T03:09:31.713Z,96869.97
2023-04-24T03:12:06.122Z,96870.91
2023-04-24T03:14:39.118Z,96867.31
2023-04-24T03:17:12.053Z,96862.34
2023-04-24T03:19:45.642Z,96871.03
2023-04-24T03:22:18.924Z,96870.44
2023-04-24T03:24:51.898Z,96874.88
2023-04-24T03:27:26.262Z,96881.81
2023-04-24T03:29:59.199Z,96872.34
2023-04-24T03:32:33.258Z,96881.81
2023-04-24T03:35:07.397Z,96884.59
2023-04-24T03:37:40.484Z,96887.22
2023-04-24T03:40:13.809Z,96892.44
2023-04-24T03:42:48.108Z,96887.31
2023-04-24T03:45:21.370Z,96884.78
2023-04-24T03:47:54.364Z,96883.09
2023-04-24T03:50:27.655Z,96878.34
2023-04-24T03:53:00.797Z,96873.34
2023-04-24T03:55:33.742Z,96877.63
2023-04-24T03:58:08.036Z,96881.53
2023-04-24T04:00:41.299Z,96874.88
2023-04-24T04:03:15.614Z,96874.19
2023-04-24T04:05:48.706Z,96883.69
2023-04-24T04:08:21.713Z,96881.81
2023-04-24T04:10:54.678Z,96892.91
2023-04-24T04:13:28.989Z,96889.91
2023-04-24T04:16:02.017Z,96895.88
2023-04-24T04:18:35.568Z,96883.91
2023-04-24T04:21:08.656Z,96899.38
2023-04-24T04:23:41.770Z,96901.16
2023-04-24T04:26:14.880Z,96890.75
2023-04-24T04:28:49.924Z,96892.63
2023-04-24T04:31:24.344Z,96898.88
2023-04-24T04:33:57.308Z,96892.88
2023-04-24T04:36:30.446Z,96892.88
2023-04-24T04:39:03.735Z,96896.75
2023-04-24T04:41:36.965Z,96901.09
2023-04-24T04:44:11.315Z,96903.47
2023-04-24T04:46:45.104Z,96903.72
2023-04-24T04:49:18.567Z,96907.34
2023-04-24T04:51:51.959Z,96904.53
2023-04-24T04:54:24.996Z,96910.84
2023-04-24T04:56:58.194Z,96923.03
2023-04-24T04:59:32.511Z,96925.88
2023-04-24T05:02:05.803Z,96934.53
2023-04-24T05:04:40.184Z,96944.03
2023-04-24T05:07:17.141Z,96977.25
2023-04-24T05:09:50.089Z,96973.63
2023-04-24T05:12:23.060Z,96972.19
2023-04-24T05:14:57.370Z,96980.19
2023-04-24T05:17:30.488Z,96983.28
2023-04-24T05:20:04.404Z,96985.41
2023-04-24T05:22:37.753Z,96983.88
2023-04-24T05:25:11.073Z,96997.25
2023-04-24T05:27:44.229Z,96997.06
2023-04-24T05:30:18.570Z,97004.66
2023-04-24T05:32:51.549Z,97001.88
2023-04-24T05:35:24.578Z,97003.50
2023-04-24T05:37:57.525Z,97015.38
2023-04-24T05:40:30.529Z,97004.66
2023-04-24T05:43:03.471Z,97010.22
2023-04-24T05:45:37.865Z,97018.88
2023-04-24T05:48:10.874Z,97022.31
2023-04-24T05:50:43.972Z,97028.38
2023-04-24T05:53:17.260Z,97036.03
2023-04-24T05:55:50.606Z,97034.97
2023-04-24T05:58:23.701Z,97039.13
2023-04-24T06:00:59.493Z,97040.75
2023-04-24T06:03:33.961Z,97046.00
2023-04-24T06:06:08.164Z,97058.22
2023-04-24T06:08:41.106Z,97058.44
2023-04-24T06:11:14.138Z,97053.72
2023-04-24T06:13:47.127Z,97060.03
2023-04-24T06:16:21.557Z,97069.91
2023-04-24T06:18:54.532Z,97077.97
2023-04-24T06:21:28.541Z,97069.44
2023-04-24T06:24:01.549Z,97075.16
2023-04-24T06:26:34.501Z,97080.13
2023-04-24T06:29:08.590Z,97079.06
2023-04-24T06:31:43.005Z,97082.44
2023-04-24T06:34:16.058Z,97091.44
2023-04-24T06:36:49.482Z,97083.47
2023-04-24T06:39:22.488Z,97088.53
2023-04-24T06:41:55.499Z,97088.44
2023-04-24T06:44:28.449Z,97081.50
2023-04-24T06:47:02.812Z,97068.56
2023-04-24T06:49:35.788Z,97063.53
2023-04-24T06:52:09.052Z,97069.28
2023-04-24T06:54:43.726Z,97068.38
2023-04-24T06:57:17.272Z,97060.22
2023-04-24T06:59:50.652Z,97070.88
2023-04-24T07:02:25.177Z,97065.59
2023-04-24T07:04:58.367Z,97061.69
2023-04-24T07:07:31.405Z,97060.47
2023-04-24T07:10:04.948Z,97062.13
2023-04-24T07:12:38.388Z,97055.13
2023-04-24T07:15:12.602Z,97058.31
2023-04-24T07:17:46.941Z,97063.06
2023-04-24T07:20:20.366Z,97061.72
2023-04-24T07:22:54.853Z,97065.03
2023-04-24T07:25:28.083Z,97057.28
2023-04-24T07:28:01.472Z,97068.38
2023-04-24T07:30:34.708Z,97063.59
2023-04-24T07:33:09.122Z,97054.72
2023-04-24T07:35:42.208Z,97055.84
2023-04-24T07:38:15.243Z,97045.38
2023-04-24T07:40:50.914Z,97057.91
2023-04-24T07:43:24.672Z,97055.00
2023-04-24T07:45:57.702Z,97052.50
2023-04-24T07:48:32.178Z,97060.03
2023-04-24T07:51:05.712Z,97063.69
2023-04-24T07:53:38.705Z,97056.03
2023-04-24T07:56:11.896Z,97060.47
2023-04-24T07:58:44.840Z,97065.53
2023-04-24T08:01:17.940Z,97054.50
2023-04-24T08:03:53.119Z,97076.38
2023-04-24T08:06:28.888Z,97086.56
2023-04-24T08:09:02.540Z,97092.91
2023-04-24T08:11:35.550Z,97091.16
2023-04-24T08:14:08.515Z,97101.13
2023-04-24T08:16:41.578Z,97102.81
2023-04-24T08:19:16.053Z,97101.19
2023-04-24T08:21:49.056Z,97106.81
2023-04-24T08:24:22.085Z,97095.97
2023-04-24T08:26:57.684Z,97107.00
2023-04-24T08:29:30.793Z,97095.88
2023-04-24T08:32:03.853Z,97108.84
2023-04-24T08:34:38.251Z,97114.34
2023-04-24T08:37:11.516Z,97101.16
2023-04-24T08:39:44.672Z,97122.09
2023-04-24T08:42:19.387Z,97126.28
2023-04-24T08:44:52.513Z,97133.66
2023-04-24T08:47:26.472Z,97135.00
2023-04-24T08:50:03.722Z,97129.22
2023-04-24T08:52:37.236Z,97130.44
2023-04-24T08:55:11.192Z,97147.19
2023-04-24T08:57:45.869Z,97145.78
2023-04-24T09:00:20.769Z,97144.38
2023-04-24T09:02:56.064Z,97151.69
2023-04-24T09:05:31.312Z,97149.13
2023-04-24T09:08:06.803Z,97156.34
2023-04-24T09:10:40.909Z,97160.16
2023-04-24T09:13:13.947Z,97140.56
2023-04-24T09:15:46.921Z,97146.75
2023-04-24T09:18:19.893Z,97140.88
2023-04-24T09:21:10.572Z,97142.31
2023-04-24T09:23:43.797Z,97133.47
2023-04-24T09:26:16.858Z,97133.16
2023-04-24T09:28:49.804Z,97144.50
2023-04-24T09:31:23.689Z,97142.59
2023-04-24T09:34:01.469Z,97153.72
2023-04-24T09:36:39.693Z,97145.66
2023-04-24T09:39:16.457Z,97157.44
2023-04-24T09:41:51.825Z,97165.41
2023-04-24T09:44:27.350Z,97151.25
2023-04-24T09:47:01.891Z,97169.09
2023-04-24T09:49:35.968Z,97172.19
2023-04-24T09:52:12.578Z,97179.94
2023-04-24T09:54:55.787Z,97186.25
2023-04-24T09:57:28.774Z,97177.44
2023-04-24T10:00:01.787Z,97197.47
2023-04-24T10:02:34.798Z,97207.03
2023-04-24T10:05:08.602Z,97208.81
2023-04-24T10:07:43.019Z,97216.19
2023-04-24T10:10:16.336Z,97219.44
2023-04-24T10:12:49.789Z,97215.06
2023-04-24T10:15:23.390Z,97217.19
2023-04-24T10:17:56.570Z,97217.50
2023-04-24T10:20:31.749Z,97209.63
2023-04-24T10:23:07.030Z,97214.53
2023-04-24T10:25:40.049Z,97214.88
2023-04-24T10:28:14.177Z,97206.22
2023-04-24T10:30:48.558Z,97202.19
2023-04-24T10:33:21.570Z,97198.31
2023-04-24T10:35:54.944Z,97194.69
2023-04-24T10:38:31.185Z,97216.50
2023-04-24T10:41:16.978Z,97209.53
2023-04-24T10:43:51.911Z,97212.41
2023-04-24T10:46:24.953Z,97223.25
2023-04-24T10:48:59.257Z,97220.47
2023-04-24T10:51:48.740Z,97234.41
2023-04-24T10:54:28.165Z,97235.28
2023-04-24T10:57:31.720Z,97247.38
2023-04-24T11:00:23.347Z,97242.28
2023-04-24T11:02:57.012Z,97232.56
2023-04-24T11:05:59.308Z,97241.75
2023-04-24T11:08:38.699Z,97234.44
2023-04-24T11:11:15.085Z,97238.44
2023-04-24T11:14:09.144Z,97228.31
2023-04-24T11:16:46.554Z,97243.41
2023-04-24T11:19:27.861Z,97246.19
2023-04-24T11:22:03.065Z,97254.19
2023-04-24T11:24:41.690Z,97240.38
2023-04-24T11:27:20.582Z,97253.13
2023-04-24T11:30:03.267Z,97263.50
2023-04-24T11:32:38.994Z,97261.91
2023-04-24T11:35:17.249Z,97262.28
2023-04-24T11:40:28.072Z,97262.28
2023-04-24T11:43:02.864Z,97269.31
2023-04-24T11:45:36.146Z,97267.38
2023-04-24T11:48:09.228Z,97273.19
2023-04-24T11:50:48.297Z,97270.81
2023-04-24T11:53:22.494Z,97265.66
2023-04-24T11:55:55.553Z,97274.91
2023-04-24T11:58:29.864Z,97277.59
2023-04-24T12:01:03.052Z,97273.06
2023-04-24T12:03:36.184Z,97271.38
2023-04-24T12:06:10.264Z,97291.38
2023-04-24T12:08:43.214Z,97290.31
2023-04-24T12:11:19.995Z,97291.88
2023-04-24T12:13:54.372Z,97290.53
2023-04-24T12:16:28.905Z,97288.56
2023-04-24T12:19:02.069Z,97282.72
2023-04-24T12:21:35.002Z,97282.81
2023-04-24T12:24:09.513Z,97279.19
2023-04-24T12:26:45.406Z,97281.88
2023-04-24T12:29:23.572Z,97287.03
2023-04-24T12:31:57.126Z,97288.19
2023-04-24T12:34:30.568Z,97301.38
2023-04-24T12:37:12.923Z,97296.63
2023-04-24T12:40:01.329Z,97306.97
2023-04-24T12:42:34.763Z,97305.72
2023-04-24T12:45:10.027Z,97310.66
2023-04-24T12:47:44.842Z,97309.13
2023-04-24T12:50:18.300Z,97293.69
2023-04-24T12:52:51.257Z,97299.78
2023-04-24T12:55:24.352Z,97301.97
2023-04-24T12:57:57.328Z,97299.97
2023-04-24T13:00:31.747Z,97291.56
2023-04-24T13:03:05.458Z,97287.56
2023-04-24T13:05:38.545Z,97281.56
2023-04-24T13:08:11.577Z,97291.16
2023-04-24T13:10:44.531Z,97287.56
2023-04-24T13:13:18.308Z,97283.22
2023-04-24T13:15:52.582Z,97298.75
2023-04-24T13:18:25.591Z,97297.53
2023-04-24T13:20:58.524Z,97293.28
2023-04-24T13:23:31.471Z,97308.00
2023-04-24T13:26:04.568Z,97300.91
2023-04-24T13:28:39.210Z,97302.09
2023-04-24T13:31:14.672Z,97296.38
2023-04-24T13:33:47.749Z,97299.16
2023-04-24T13:36:20.880Z,97297.63
2023-04-24T13:38:53.896Z,97297.53
2023-04-24T13:41:27.015Z,97302.41
2023-04-24T13:44:00.172Z,97300.56
2023-04-24T13:46:34.887Z,97301.06
2023-04-24T13:49:08.022Z,97311.72
2023-04-24T13:51:41.799Z,97321.53
2023-04-24T13:54:14.914Z,97326.19
2023-04-24T13:56:47.956Z,97328.56
2023-04-24T13:59:22.692Z,97328.16
2023-04-24T14:01:57.131Z,97320.91
2023-04-24T14:04:30.327Z,97323.66
2023-04-24T14:07:03.506Z,97328.16
2023-04-24T14:09:36.512Z,97335.72
2023-04-24T14:12:09.465Z,97333.16
2023-04-24T14:14:42.860Z,97332.91
2023-04-24T14:17:17.163Z,97325.03
2023-04-24T14:19:50.120Z,97320.25
2023-04-24T14:22:23.096Z,97321.94
2023-04-24T14:24:56.053Z,97316.94
2023-04-24T14:27:29.156Z,97317.63
2023-04-24T14:30:02.603Z,97315.13
2023-04-24T14:32:37.187Z,97319.50
2023-04-24T14:35:10.817Z,97328.78
2023-04-24T14:37:43.801Z,97350.75
2023-04-24T14:42:53.908Z,97360.63
2023-04-24T14:45:27.515Z,97367.50
2023-04-24T14:48:01.870Z,97358.22
2023-04-24T14:50:34.977Z,97351.13
2023-04-24T14:53:08.647Z,97350.00
2023-04-24T14:55:41.628Z,97349.16
2023-04-24T14:58:14.637Z,97341.16
2023-04-24T15:00:50.530Z,97341.53
2023-04-24T15:03:25.158Z,97328.50
2023-04-24T15:05:58.396Z,97327.53
2023-04-24T15:08:31.473Z,97330.56
2023-04-24T15:11:04.542Z,97335.00
2023-04-24T15:13:37.620Z,97338.16
2023-04-24T15:16:10.663Z,97343.16
2023-04-24T15:18:45.494Z,97337.97
2023-04-24T15:21:18.505Z,97345.78
2023-04-24T15:23:51.564Z,97336.41
2023-04-24T15:26:25.567Z,97342.16
2023-04-24T15:28:58.543Z,97327.03
2023-04-24T15:31:31.623Z,97321.78
2023-04-24T15:34:06.007Z,97326.66
2023-04-24T15:36:39.418Z,97323.22
2023-04-24T15:39:12.598Z,97328.91
2023-04-24T15:41:45.594Z,97336.34
2023-04-24T15:44:18.585Z,97339.81
2023-04-24T15:46:52.310Z,97330.63
2023-04-24T15:49:27.713Z,97328.81
2023-04-24T15:52:00.853Z,97327.97
2023-04-24T15:54:33.942Z,97321.22
2023-04-24T15:57:06.976Z,97328.97
2023-04-24T15:59:40.091Z,97335.13
2023-04-24T16:02:18.879Z,97335.78
2023-04-24T16:04:53.925Z,97332.44
2023-04-24T16:07:27.165Z,97335.28
2023-04-24T16:10:00.241Z,97329.63
2023-04-24T16:12:33.279Z,97328.88
2023-04-24T16:15:08.047Z,97333.78
2023-04-24T16:17:41.084Z,97335.47
2023-04-24T16:20:15.861Z,97335.63
2023-04-24T16:22:48.930Z,97335.47
2023-04-24T16:25:22.058Z,97335.94
2023-04-24T16:27:55.501Z,97332.94
2023-04-24T16:30:28.454Z,97323.00
2023-04-24T16:33:01.501Z,97317.34
2023-04-24T16:35:36.103Z,97317.16
2023-04-24T16:38:09.364Z,97319.50
2023-04-24T16:40:42.835Z,97329.88
2023-04-24T16:43:15.788Z,97329.28
2023-04-24T16:45:48.720Z,97325.66
2023-04-24T16:48:21.802Z,97330.91
2023-04-24T16:50:56.178Z,97326.59
2023-04-24T16:53:29.123Z,97331.38
2023-04-24T16:56:02.200Z,97337.28
2023-04-24T16:58:35.265Z,97331.53
2023-04-24T17:01:08.326Z,97327.25
2023-04-24T17:03:41.866Z,97331.66
2023-04-24T17:06:16.442Z,97330.66
2023-04-24T17:08:49.549Z,97337.41
2023-04-24T17:11:23.042Z,97333.66
2023-04-24T17:13:56.159Z,97338.03
2023-04-24T17:16:30.796Z,97340.25
2023-04-24T17:19:04.291Z,97332.09
2023-04-24T17:21:38.625Z,97331.78
2023-04-24T17:24:11.576Z,97339.19
2023-04-24T17:26:44.560Z,97333.75
2023-04-24T17:29:17.568Z,97337.00
2023-04-24T17:31:50.551Z,97341.13
2023-04-24T17:34:23.750Z,97350.50
2023-04-24T17:36:58.069Z,97344.56
2023-04-24T17:39:31.314Z,97343.75
2023-04-24T17:42:04.299Z,97348.72
2023-04-24T17:44:37.234Z,97340.09
2023-04-24T17:47:10.492Z,97336.34
2023-04-24T17:49:43.741Z,97341.16
2023-04-24T17:52:18.227Z,97338.47
2023-04-24T17:54:51.239Z,97343.41
2023-04-24T17:57:24.200Z,97343.00
2023-04-24T17:59:57.392Z,97337.56
2023-04-24T18:02:30.460Z,97343.38
2023-04-24T18:05:03.491Z,97340.41
2023-04-24T18:07:39.153Z,97341.94
2023-04-24T18:10:12.514Z,97339.22
2023-04-24T18:12:46.455Z,97345.09
2023-04-24T18:15:19.816Z,97344.19
2023-04-24T18:17:53.265Z,97341.56
2023-04-24T18:20:26.532Z,97340.75
2023-04-24T18:23:02.989Z,97342.59
2023-04-24T18:25:36.439Z,97345.81
2023-04-24T18:28:09.396Z,97353.50
2023-04-24T18:30:42.364Z,97360.88
2023-04-24T18:33:15.496Z,97364.22
2023-04-24T18:35:48.465Z,97365.03
2023-04-24T18:38:22.999Z,97366.78
2023-04-24T18:40:56.614Z,97355.44
2023-04-24T18:43:29.829Z,97353.66
2023-04-24T18:46:03.658Z,97353.41
2023-04-24T18:48:36.660Z,97356.63
2023-04-24T18:51:09.945Z,97359.03
2023-04-24T18:53:44.623Z,97369.78
2023-04-24T18:56:17.917Z,97371.94
2023-04-24T18:58:52.015Z,97369.34
2023-04-24T19:01:25.297Z,97375.09
2023-04-24T19:03:58.651Z,97376.78
2023-04-24T19:06:32.997Z,97375.59
2023-04-24T19:09:07.856Z,97381.59
2023-04-24T19:11:41.667Z,97388.44
2023-04-24T19:14:16.068Z,97391.84
2023-04-24T19:16:49.304Z,97391.09
2023-04-24T19:19:23.754Z,97397.94
2023-04-24T19:21:56.764Z,97397.94
2023-04-24T19:24:33.321Z,97396.34
2023-04-24T19:27:06.432Z,97400.34
2023-04-24T19:29:41.277Z,97405.59
2023-04-24T19:32:14.261Z,97395.88
2023-04-24T19:34:47.265Z,97398.22
2023-04-24T19:37:20.261Z,97415.84
2023-04-24T19:39:54.679Z,97411.00
2023-04-24T19:42:42.098Z,97405.25
2023-04-24T19:45:16.803Z,97408.03
2023-04-24T19:47:49.923Z,97406.91
2023-04-24T19:50:23.158Z,97401.50
2023-04-24T19:52:56.097Z,97399.91
2023-04-24T19:55:31.368Z,97400.38
2023-04-24T19:58:04.316Z,97402.94
2023-04-24T20:00:37.319Z,97409.00
2023-04-24T20:03:15.906Z,97404.69
2023-04-24T20:05:54.884Z,97412.97
2023-04-24T20:08:27.946Z,97408.34
2023-04-24T20:11:02.339Z,97407.22
2023-04-24T20:13:35.319Z,97413.91
2023-04-24T20:16:11.160Z,97412.69
2023-04-24T20:18:44.651Z,97413.41
2023-04-24T20:21:17.729Z,97416.78
2023-04-24T20:23:52.301Z,97413.88
2023-04-24T20:26:26.843Z,97413.41
2023-04-24T20:28:59.868Z,97420.50
2023-04-24T20:31:33.099Z,97412.88
2023-04-24T20:34:06.593Z,97415.50
2023-04-24T20:36:39.616Z,97415.34
2023-04-24T20:39:12.712Z,97405.16
2023-04-24T20:41:47.524Z,97413.66
2023-04-24T20:44:20.539Z,97407.59
2023-04-24T20:46:53.488Z,97407.59
2023-04-24T20:49:26.545Z,97405.06
2023-04-24T20:51:59.495Z,97401.09
2023-04-24T20:54:32.493Z,97404.78
2023-04-24T20:57:06.899Z,97391.94
2023-04-24T20:59:39.977Z,97401.25
2023-04-24T21:02:13.054Z,97404.13
2023-04-24T21:04:46.201Z,97407.66
2023-04-24T21:07:19.337Z,97401.91
2023-04-24T21:09:52.322Z,97399.72
2023-04-24T21:12:26.657Z,97404.25
2023-04-24T21:14:59.644Z,97396.84
2023-04-24T21:17:33.078Z,97393.75
2023-04-24T21:20:07.496Z,97388.38
2023-04-24T21:22:40.498Z,97386.03
2023-04-24T21:25:13.491Z,97374.53
2023-04-24T21:27:48.111Z,97375.75
2023-04-24T21:30:21.974Z,97379.22
2023-04-24T21:32:56.007Z,97380.44
2023-04-24T21:35:29.059Z,97379.34
2023-04-24T21:38:02.079Z,97375.81
2023-04-24T21:40:35.167Z,97375.72
2023-04-24T21:43:09.852Z,97377.72
2023-04-24T21:45:43.114Z,97373.72
2023-04-24T21:48:16.414Z,97367.59
2023-04-24T21:50:50.059Z,97364.34
2023-04-24T21:53:23.100Z,97364.03
2023-04-24T21:55:56.176Z,97355.97
2023-04-24T21:58:30.712Z,97357.00
2023-04-24T22:01:03.767Z,97358.66
2023-04-24T22:03:36.952Z,97363.44
2023-04-24T22:06:10.088Z,97357.88
2023-04-24T22:08:47.245Z,97348.53
2023-04-24T22:11:26.731Z,97353.31
2023-04-24T22:14:01.676Z,97349.63
2023-04-24T22:16:35.238Z,97349.47
2023-04-24T22:19:08.642Z,97343.50
2023-04-24T22:21:42.357Z,97334.66
2023-04-24T22:24:15.712Z,97330.19
2023-04-24T22:26:49.562Z,97331.06
2023-04-24T22:29:23.939Z,97320.53
2023-04-24T22:31:57.646Z,97315.38
2023-04-24T22:34:30.811Z,97321.06
2023-04-24T22:37:03.867Z,97321.72
2023-04-24T22:39:36.851Z,97320.91
2023-04-24T22:42:10.074Z,97319.78
2023-04-24T22:44:44.465Z,97319.47
2023-04-24T22:47:19.625Z,97320.53
2023-04-24T22:49:53.750Z,97312.13
2023-04-24T22:52:29.017Z,97313.72
2023-04-24T22:55:02.055Z,97315.22
2023-04-24T22:57:35.193Z,97312.72
2023-04-24T23:00:12.588Z,97318.16
2023-04-24T23:02:46.173Z,97316.59
2023-04-24T23:05:21.410Z,97312.19
2023-04-24T23:07:54.432Z,97313.22
2023-04-24T23:10:27.566Z,97305.69
2023-04-24T23:13:00.618Z,97310.13
2023-04-24T23:15:35.054Z,97306.88
2023-04-24T23:18:08.086Z,97306.72
2023-04-24T23:20:41.655Z,97304.09
2023-04-24T23:23:15.956Z,97306.56
2023-04-24T23:25:48.988Z,97307.91
2023-04-24T23:28:22.027Z,97306.00
2023-04-24T23:30:56.451Z,97312.47
2023-04-24T23:33:29.416Z,97306.41
2023-04-24T23:36:02.536Z,97308.25
2023-04-24T23:38:46.520Z,97310.88
2023-04-24T23:41:22.368Z,97302.72
2023-04-24T23:43:55.410Z,97297.56
2023-04-24T23:46:29.800Z,97294.84
2023-04-24T23:49:03.005Z,97295.09
2023-04-24T23:51:36.326Z,97288.50
2023-04-24T23:54:09.664Z,97295.34
2023-04-24T23:56:42.748Z,97288.50
2023-04-24T23:59:15.806Z,97294.31
